Time;durP1;ratioP1;P1;durP2;ratioP2;P2;SDS_P1;SDS_P2;PMS_P1;PMS_P2;Temp;Humidity;BMP_temperature;BMP_pressure;BME280_temperature;BME280_humidity;BME280_pressure;Samples;Min_cycle;Max_cycle;Signal;HPM_P1;HPM_P2
2024/04/01 00:01:41;;;;;;;5.05;1.33;;;9.80;99.90;;;;;;4953619;28;20027;-78
2024/04/01 00:04:06;;;;;;;4.95;1.20;;;9.70;99.90;;;;;;4951784;29;20028;-79
2024/04/01 00:06:32;;;;;;;9.27;1.52;;;9.70;99.90;;;;;;4953568;28;20090;-79
2024/04/01 00:08:57;;;;;;;6.15;1.00;;;10.80;99.90;;;;;;4951587;29;20037;-79
2024/04/01 00:11:26;;;;;;;5.95;1.85;;;9.60;99.90;;;;;;4954008;28;20027;-78
2024/04/01 00:13:52;;;;;;;6.18;1.40;;;9.60;99.90;;;;;;4968863;28;20393;-78
2024/04/01 00:16:18;;;;;;;4.78;1.83;;;10.00;99.90;;;;;;4968425;28;20057;-78
2024/04/01 00:18:44;;;;;;;4.90;1.45;;;9.40;99.90;;;;;;4967480;28;20058;-77
2024/04/01 00:21:09;;;;;;;2.70;1.40;;;10.10;99.90;;;;;;4967483;28;20471;-77
2024/04/01 00:23:36;;;;;;;7.28;1.50;;;10.50;99.90;;;;;;4952529;29;20023;-77
2024/04/01 00:26:02;;;;;;;4.07;1.50;;;9.70;99.90;;;;;;4952657;28;20030;-77
2024/04/01 00:28:28;;;;;;;2.22;1.35;;;9.40;99.90;;;;;;4952326;28;20427;-77
2024/04/01 00:30:54;;;;;;;7.65;1.60;;;10.10;99.90;;;;;;4952512;29;20114;-77
2024/04/01 00:33:20;;;;;;;12.95;1.40;;;9.30;99.90;;;;;;4952178;28;20114;-77
2024/04/01 00:35:46;;;;;;;6.43;0.77;;;9.30;99.90;;;;;;4952063;29;20031;-78
2024/04/01 00:38:11;;;;;;;6.05;1.27;;;9.20;99.90;;;;;;4952034;28;20035;-77
2024/04/01 00:40:37;;;;;;;5.35;1.70;;;10.50;99.90;;;;;;4951773;29;20027;-77
2024/04/01 00:43:07;;;;;;;5.70;1.35;;;9.10;99.90;;;;;;4954468;28;20034;-77
2024/04/01 00:45:40;;;;;;;5.47;1.67;;;9.10;99.90;;;;;;4950522;29;20027;-77
2024/04/01 00:48:08;;;;;;;9.70;1.20;;;9.00;99.90;;;;;;4954268;28;20110;-77
2024/04/01 00:50:35;;;;;;;11.98;1.88;;;9.50;99.90;;;;;;4952184;28;20027;-77
2024/04/01 00:53:02;;;;;;;4.40;1.10;;;8.90;99.90;;;;;;4952178;28;20515;-77
2024/04/01 00:55:29;;;;;;;3.42;1.42;;;8.90;99.90;;;;;;4948057;29;20110;-77
2024/04/01 00:57:58;;;;;;;7.75;1.23;;;8.90;99.90;;;;;;4953890;28;20027;-77
2024/04/01 01:00:24;;;;;;;5.03;1.80;;;10.00;99.90;;;;;;4951338;29;20042;-77
2024/04/01 01:02:50;;;;;;;2.88;1.50;;;9.40;99.90;;;;;;4951741;28;20039;-78
2024/04/01 01:05:16;;;;;;;5.38;1.23;;;8.90;99.90;;;;;;4951731;28;20053;-78
2024/04/01 01:07:45;;;;;;;5.97;2.03;;;8.80;99.90;;;;;;4951738;28;20403;-77
2024/04/01 01:10:10;;;;;;;7.45;1.67;;;8.80;99.90;;;;;;4966498;28;20669;-77
2024/04/01 01:12:40;;;;;;;3.35;1.38;;;9.70;99.90;;;;;;4951531;28;20024;-77
2024/04/01 01:15:06;;;;;;;6.68;1.52;;;8.70;99.90;;;;;;4951727;29;20028;-78
2024/04/01 01:17:33;;;;;;;4.75;1.48;;;8.70;99.90;;;;;;4950309;29;20031;-77
2024/04/01 01:20:03;;;;;;;3.30;1.23;;;8.70;99.90;;;;;;4951543;28;20047;-77
2024/04/01 01:22:36;;;;;;;2.67;1.25;;;8.60;99.90;;;;;;4950937;28;20368;-77
2024/04/01 01:25:06;;;;;;;3.33;1.02;;;8.60;99.90;;;;;;4966521;28;20027;-79
2024/04/01 01:27:35;;;;;;;4.97;1.70;;;8.60;99.90;;;;;;4950087;28;20487;-77
2024/04/01 01:30:15;;;;;;;7.60;1.85;;;8.60;99.90;;;;;;4951895;28;20035;-78
2024/04/01 01:32:54;;;;;;;9.90;2.15;;;8.60;99.90;;;;;;4950367;28;20035;-77
2024/04/01 01:35:25;;;;;;;8.02;1.80;;;8.60;99.90;;;;;;4951260;29;20035;-77
2024/04/01 01:37:53;;;;;;;2.72;1.27;;;8.60;99.90;;;;;;4951778;28;20055;-77
2024/04/01 01:40:19;;;;;;;4.95;1.23;;;8.60;99.90;;;;;;4949067;29;20495;-77
2024/04/01 01:42:45;;;;;;;9.65;1.80;;;9.20;99.90;;;;;;4966711;28;20426;-78
2024/04/01 01:45:11;;;;;;;3.03;1.40;;;8.50;99.90;;;;;;4951278;28;20031;-77
2024/04/01 01:47:38;;;;;;;4.57;1.20;;;8.50;99.90;;;;;;4950080;28;20035;-78
2024/04/01 01:50:06;;;;;;;3.85;1.75;;;8.50;99.90;;;;;;4949744;29;20083;-78
2024/04/01 01:52:32;;;;;;;3.80;1.38;;;8.40;99.90;;;;;;4950919;28;20035;-78
2024/04/01 01:54:58;;;;;;;7.30;1.85;;;8.40;99.90;;;;;;4951488;29;20495;-77
2024/04/01 01:57:24;;;;;;;4.25;1.60;;;8.40;99.90;;;;;;4949815;28;20038;-77
2024/04/01 01:59:50;;;;;;;6.10;1.70;;;8.40;99.90;;;;;;4949874;29;20039;-77
2024/04/01 02:02:17;;;;;;;9.18;2.15;;;8.50;99.90;;;;;;4951646;28;20027;-77
2024/04/01 02:04:43;;;;;;;5.40;1.85;;;8.50;99.90;;;;;;4951325;28;20027;-78
2024/04/01 02:07:08;;;;;;;6.78;1.92;;;8.40;99.90;;;;;;4953064;28;20109;-78
2024/04/01 02:09:35;;;;;;;9.25;1.55;;;8.40;99.90;;;;;;4951039;28;20483;-78
2024/04/01 02:12:07;;;;;;;5.45;1.40;;;8.40;99.90;;;;;;4951926;28;20050;-77
2024/04/01 02:14:36;;;;;;;6.40;1.67;;;8.40;99.90;;;;;;4947675;29;20042;-77
2024/04/01 02:17:07;;;;;;;4.13;1.20;;;8.40;99.90;;;;;;4950727;28;20062;-79
2024/04/01 02:19:34;;;;;;;4.72;1.60;;;8.40;99.90;;;;;;4948919;29;20023;-77
2024/04/01 02:22:01;;;;;;;4.90;1.30;;;;;;;;;;4951067;28;20106;-78
2024/04/01 02:24:26;;;;;;;4.25;2.22;;;8.30;99.90;;;;;;4951213;29;20495;-78
2024/04/01 02:26:55;;;;;;;3.97;1.10;;;8.50;99.90;;;;;;4950858;29;20066;-77
2024/04/01 02:29:22;;;;;;;1.90;1.08;;;8.20;99.90;;;;;;4951372;29;20039;-77
2024/04/01 02:31:48;;;;;;;2.00;0.73;;;8.20;99.90;;;;;;4950671;29;20039;-78
2024/04/01 02:34:14;;;;;;;3.17;1.42;;;8.20;99.90;;;;;;4948787;29;20504;-78
2024/04/01 02:36:39;;;;;;;6.90;1.42;;;8.20;99.90;;;;;;4948875;29;20118;-77
2024/04/01 02:39:05;;;;;;;3.63;1.42;;;8.20;99.90;;;;;;4951145;28;20578;-78
2024/04/01 02:41:31;;;;;;;3.20;1.65;;;8.20;99.90;;;;;;4965527;28;20049;-78
2024/04/01 02:43:57;;;;;;;3.78;1.67;;;8.20;99.90;;;;;;4949644;28;20115;-78
2024/04/01 02:46:23;;;;;;;3.95;1.05;;;8.10;99.90;;;;;;4950988;29;20114;-77
2024/04/01 02:48:48;;;;;;;2.17;1.10;;;8.10;99.90;;;;;;4949324;29;20069;-78
2024/04/01 02:51:14;;;;;;;4.90;1.75;;;8.10;99.90;;;;;;4953161;28;20031;-77
2024/04/01 02:53:47;;;;;;;3.05;1.73;;;8.10;99.90;;;;;;4952630;29;20523;-78
2024/04/01 02:56:16;;;;;;;5.53;1.73;;;8.00;99.90;;;;;;4954195;29;20023;-77
2024/04/01 02:58:45;;;;;;;4.63;1.23;;;8.00;99.90;;;;;;4968949;28;20031;-77
2024/04/01 03:01:11;;;;;;;2.33;1.15;;;8.00;99.90;;;;;;4954204;29;20031;-78
2024/04/01 03:03:37;;;;;;;5.95;2.00;;;8.10;99.90;;;;;;4953897;28;20089;-77
2024/04/01 03:06:03;;;;;;;4.30;1.48;;;8.60;99.90;;;;;;4952925;29;20062;-78
2024/04/01 03:08:30;;;;;;;2.75;0.93;;;8.10;99.90;;;;;;4968930;28;20063;-79
2024/04/01 03:11:03;;;;;;;4.57;1.00;;;8.10;99.90;;;;;;4954334;29;20034;-78
2024/04/01 03:13:31;;;;;;;2.63;1.20;;;8.10;99.90;;;;;;4953005;28;20043;-77
2024/04/01 03:15:57;;;;;;;3.60;1.10;;;8.10;99.90;;;;;;4953842;29;20092;-77
2024/04/01 03:18:25;;;;;;;3.00;0.90;;;8.10;99.90;;;;;;4956505;28;20035;-77
2024/04/01 03:20:52;;;;;;;1.85;0.73;;;8.10;99.90;;;;;;4953705;29;20031;-77
2024/04/01 03:23:18;;;;;;;5.63;1.30;;;8.10;99.90;;;;;;4953864;28;20039;-77
2024/04/01 03:25:50;;;;;;;3.65;1.20;;;8.10;99.90;;;;;;4953528;28;20046;-78
2024/04/01 03:28:16;;;;;;;10.20;1.15;;;8.10;99.90;;;;;;4953689;28;21299;-78
2024/04/01 03:30:42;;;;;;;3.30;1.00;;;8.80;99.90;;;;;;4968555;28;20548;-77
2024/04/01 03:33:07;;;;;;;4.00;1.33;;;8.10;99.90;;;;;;4954879;28;20034;-78
2024/04/01 03:35:33;;;;;;;3.38;1.08;;;8.10;99.90;;;;;;4953106;29;20050;-77
2024/04/01 03:37:59;;;;;;;1.92;0.98;;;8.10;99.90;;;;;;4953427;28;20396;-78
2024/04/01 03:40:25;;;;;;;2.50;0.95;;;8.10;99.90;;;;;;4953982;29;20029;-78
2024/04/01 03:42:50;;;;;;;5.43;1.50;;;8.10;99.90;;;;;;4968403;28;20106;-78
2024/04/01 03:45:16;;;;;;;2.20;1.30;;;8.90;99.90;;;;;;4968094;28;20024;-78
2024/04/01 03:47:42;;;;;;;3.22;1.10;;;8.10;99.90;;;;;;4967694;28;20078;-78
2024/04/01 03:50:11;;;;;;;1.98;1.23;;;8.10;99.90;;;;;;4951619;29;20035;-78
2024/04/01 03:52:37;;;;;;;4.05;0.85;;;8.10;99.90;;;;;;4951994;28;20547;-78
2024/04/01 03:55:03;;;;;;;3.80;1.33;;;8.10;99.90;;;;;;4953288;28;20027;-78
2024/04/01 03:57:29;;;;;;;3.70;1.10;;;8.10;99.90;;;;;;4953177;28;20035;-78
2024/04/01 03:59:55;;;;;;;5.15;1.83;;;8.10;99.90;;;;;;4952437;29;20031;-78
2024/04/01 04:02:20;;;;;;;3.22;1.55;;;8.10;99.90;;;;;;4952299;28;20038;-77
2024/04/01 04:04:46;;;;;;;6.07;1.25;;;8.10;99.90;;;;;;4951956;28;20043;-77
2024/04/01 04:07:12;;;;;;;3.30;1.17;;;8.10;99.90;;;;;;4951369;29;20019;-77
2024/04/01 04:09:37;;;;;;;3.53;1.63;;;8.10;99.90;;;;;;4953202;28;20086;-77
2024/04/01 04:12:03;;;;;;;2.42;0.65;;;8.00;99.90;;;;;;4951340;29;20086;-77
2024/04/01 04:14:29;;;;;;;3.00;1.25;;;8.00;99.90;;;;;;4953256;28;20061;-78
2024/04/01 04:16:54;;;;;;;3.38;1.02;;;8.10;99.90;;;;;;4951825;29;20034;-78
2024/04/01 04:19:20;;;;;;;3.03;0.90;;;8.00;99.90;;;;;;4967972;28;20030;-78
2024/04/01 04:21:46;;;;;;;2.70;1.20;;;8.20;99.90;;;;;;4952994;29;20031;-78
2024/04/01 04:24:14;;;;;;;3.58;1.30;;;8.00;99.90;;;;;;4966952;28;20023;-78
2024/04/01 04:26:41;;;;;;;1.35;1.23;;;8.60;99.90;;;;;;4952328;29;20478;-77
2024/04/01 04:29:06;;;;;;;3.20;1.13;;;8.00;99.90;;;;;;4954648;28;20039;-77
2024/04/01 04:31:33;;;;;;;3.88;1.13;;;8.00;99.90;;;;;;4952151;29;20038;-77
2024/04/01 04:33:59;;;;;;;3.13;1.30;;;7.90;99.90;;;;;;4954128;28;20031;-77
2024/04/01 04:36:25;;;;;;;2.17;0.90;;;7.90;99.90;;;;;;4953237;29;20031;-78
2024/04/01 04:38:51;;;;;;;1.63;1.10;;;7.90;99.90;;;;;;4953006;28;20519;-78
2024/04/01 04:41:17;;;;;;;2.13;1.10;;;7.90;99.90;;;;;;4950927;29;20384;-78
2024/04/01 04:43:46;;;;;;;4.05;1.40;;;7.90;99.90;;;;;;4968183;28;20102;-78
2024/04/01 04:46:13;;;;;;;3.40;1.35;;;7.90;99.90;;;;;;4952215;29;20042;-78
2024/04/01 04:48:45;;;;;;;1.52;1.10;;;;;;;;;;4966630;28;20035;-78
2024/04/01 04:51:11;;;;;;;1.77;1.17;;;7.90;99.90;;;;;;4952086;29;20038;-78
2024/04/01 04:53:38;;;;;;;2.08;1.25;;;7.90;99.90;;;;;;4951579;28;20510;-78
2024/04/01 04:56:05;;;;;;;3.83;1.50;;;7.90;99.90;;;;;;4951854;28;20031;-78
2024/04/01 04:58:34;;;;;;;2.95;1.10;;;7.90;99.90;;;;;;4950816;28;20090;-78
2024/04/01 05:01:05;;;;;;;1.20;0.80;;;7.90;99.90;;;;;;4952374;28;20015;-76
2024/04/01 05:03:32;;;;;;;4.50;1.60;;;7.90;99.90;;;;;;4964545;28;20569;-80
2024/04/01 05:05:59;;;;;;;1.48;0.85;;;8.00;99.90;;;;;;4973737;23;20039;-77
2024/04/01 05:08:25;;;;;;;2.58;1.30;;;8.00;99.90;;;;;;4993134;28;20029;-76
2024/04/01 05:10:51;;;;;;;1.77;1.10;;;8.00;99.90;;;;;;4991491;28;20065;-76
2024/04/01 05:13:16;;;;;;;4.22;1.70;;;8.10;99.90;;;;;;4992852;28;20469;-77
2024/04/01 05:15:42;;;;;;;2.78;1.38;;;9.00;99.90;;;;;;4992623;28;20084;-76
2024/04/01 05:18:08;;;;;;;4.95;1.30;;;8.00;99.90;;;;;;4991414;28;20101;-76
2024/04/01 05:20:34;;;;;;;2.67;1.33;;;;;;;;;;4991430;28;20026;-76
2024/04/01 05:23:00;;;;;;;3.40;1.40;;;8.00;99.90;;;;;;4992554;28;20396;-76
2024/04/01 05:25:26;;;;;;;5.07;1.55;;;8.00;99.90;;;;;;4992834;28;20033;-76
2024/04/01 05:27:51;;;;;;;3.42;1.67;;;8.00;99.90;;;;;;4992855;28;20038;-76
2024/04/01 05:30:20;;;;;;;2.38;1.75;;;8.00;99.90;;;;;;4992733;28;20037;-76
2024/04/01 05:32:46;;;;;;;2.92;1.40;;;8.00;99.90;;;;;;4991311;28;20049;-76
2024/04/01 05:35:16;;;;;;;4.68;1.45;;;8.00;99.90;;;;;;4999732;28;20088;-76
2024/04/01 05:37:42;;;;;;;5.07;1.67;;;8.00;99.90;;;;;;4991121;28;20085;-76
2024/04/01 05:40:08;;;;;;;3.20;1.52;;;8.00;99.90;;;;;;4990996;28;20125;-76
2024/04/01 05:42:36;;;;;;;2.08;1.20;;;8.00;99.90;;;;;;4990960;28;20045;-76
2024/04/01 05:45:02;;;;;;;3.25;1.23;;;8.10;99.90;;;;;;4991181;28;20092;-76
2024/04/01 05:47:27;;;;;;;2.00;1.38;;;8.10;99.90;;;;;;4992371;28;20477;-76
2024/04/01 05:49:53;;;;;;;2.97;1.40;;;8.10;99.90;;;;;;4992549;28;20034;-76
2024/04/01 05:52:19;;;;;;;2.83;1.50;;;8.10;99.90;;;;;;4992441;28;20481;-76
2024/04/01 05:54:45;;;;;;;2.78;1.55;;;8.20;99.90;;;;;;4992284;28;20034;-77
2024/04/01 05:57:10;;;;;;;3.63;1.20;;;8.20;99.90;;;;;;4992213;28;20018;-76
2024/04/01 05:59:36;;;;;;;2.75;1.15;;;8.20;99.90;;;;;;4992487;28;20516;-76
2024/04/01 06:02:01;;;;;;;1.50;1.10;;;8.30;99.90;;;;;;4992435;28;20034;-76
2024/04/01 06:04:27;;;;;;;3.05;1.70;;;8.20;99.90;;;;;;4992574;28;20031;-75
2024/04/01 06:06:52;;;;;;;5.68;2.22;;;8.30;99.90;;;;;;4991037;28;20038;-76
2024/04/01 06:09:18;;;;;;;1.88;1.00;;;8.30;99.90;;;;;;4990910;28;20026;-77
2024/04/01 06:11:44;;;;;;;2.88;1.20;;;8.40;99.90;;;;;;4991041;28;20038;-76
2024/04/01 06:14:11;;;;;;;6.32;1.38;;;8.40;99.90;;;;;;4992145;28;20085;-77
2024/04/01 06:16:39;;;;;;;7.45;1.80;;;8.50;99.90;;;;;;4990698;28;20038;-76
2024/04/01 06:19:05;;;;;;;1.43;0.80;;;8.40;99.90;;;;;;4990783;28;20049;-76
2024/04/01 06:21:31;;;;;;;1.77;1.00;;;8.70;99.90;;;;;;4992162;28;20273;-77
2024/04/01 06:24:00;;;;;;;2.47;1.10;;;8.60;99.90;;;;;;4992480;28;20015;-76
2024/04/01 06:26:26;;;;;;;;;;;9.80;99.90;;;;;;4995243;28;20106;-77
2024/04/01 06:28:51;;;;;;;2.85;0.73;;;9.10;99.90;;;;;;4996077;28;19988;-76
2024/04/01 06:31:17;;;;;;;0.68;0.57;;;8.70;99.90;;;;;;4994352;28;20106;-77
2024/04/01 06:33:43;;;;;;;2.25;1.08;;;8.70;99.90;;;;;;4995760;28;20037;-77
2024/04/01 06:36:10;;;;;;;3.60;0.90;;;8.80;99.90;;;;;;4994125;28;20050;-76
2024/04/01 06:38:37;;;;;;;3.33;0.90;;;8.80;99.90;;;;;;4994187;28;20069;-76
2024/04/01 06:41:03;;;;;;;5.82;1.63;;;8.80;99.90;;;;;;4994115;28;20037;-77
2024/04/01 06:43:29;;;;;;;6.10;1.00;;;8.90;99.90;;;;;;4995418;28;20030;-76
2024/04/01 06:45:57;;;;;;;2.45;0.90;;;8.90;99.90;;;;;;4995061;28;20371;-77
2024/04/01 06:48:23;;;;;;;4.43;1.38;;;9.00;99.90;;;;;;4995514;28;20049;-77
2024/04/01 06:50:49;;;;;;;2.70;1.25;;;9.00;99.90;;;;;;4994078;28;20085;-76
2024/04/01 06:53:17;;;;;;;2.38;1.45;;;9.10;99.90;;;;;;4993662;28;20545;-76
2024/04/01 06:55:46;;;;;;;1.63;1.27;;;9.10;99.90;;;;;;4993814;28;20485;-77
2024/04/01 06:58:12;;;;;;;2.08;0.98;;;9.20;99.90;;;;;;4993862;28;20031;-76
2024/04/01 07:00:38;;;;;;;3.20;1.50;;;9.20;99.90;;;;;;4995451;28;20034;-76
2024/04/01 07:03:05;;;;;;;3.20;1.40;;;9.30;99.90;;;;;;4993972;28;20022;-76
2024/04/01 07:05:32;;;;;;;4.20;2.08;;;9.30;99.90;;;;;;4993915;28;20026;-77
2024/04/01 07:07:59;;;;;;;4.40;1.50;;;9.50;99.90;;;;;;4974678;28;20014;-76
2024/04/01 07:10:26;;;;;;;4.13;1.42;;;9.50;99.90;;;;;;4982472;28;20054;-77
2024/04/01 07:12:51;;;;;;;3.90;1.98;;;9.60;99.90;;;;;;4995027;28;20030;-77
2024/04/01 07:15:17;;;;;;;3.78;1.80;;;9.60;99.90;;;;;;4993455;28;20109;-77
2024/04/01 07:17:43;;;;;;;3.47;1.75;;;9.60;99.90;;;;;;4994995;28;20092;-77
2024/04/01 07:20:09;;;;;;;4.10;2.03;;;10.40;99.90;;;;;;5004878;28;20010;-77
2024/04/01 07:22:37;;;;;;;3.42;1.80;;;9.70;99.90;;;;;;5014508;28;20026;-76
2024/04/01 07:25:04;;;;;;;4.85;1.63;;;9.70;99.90;;;;;;5008054;28;20049;-77
2024/04/01 07:27:34;;;;;;;4.65;2.17;;;9.70;99.90;;;;;;5008710;28;20034;-77
2024/04/01 07:30:07;;;;;;;4.10;2.08;;;9.80;99.90;;;;;;4993614;28;20481;-77
2024/04/01 07:32:35;;;;;;;5.38;2.15;;;9.70;99.90;;;;;;4993110;28;20026;-77
2024/04/01 07:35:02;;;;;;;4.10;2.20;;;9.80;99.90;;;;;;4995433;28;20094;-76
2024/04/01 07:37:30;;;;;;;5.72;2.58;;;9.80;99.90;;;;;;4992359;28;20042;-77
2024/04/01 07:39:56;;;;;;;4.95;2.60;;;9.80;99.90;;;;;;4993254;28;20477;-77
2024/04/01 07:42:22;;;;;;;4.57;2.45;;;9.80;99.90;;;;;;4994507;28;20030;-77
2024/04/01 07:44:49;;;;;;;6.00;3.08;;;9.80;99.90;;;;;;4994590;28;20026;-76
2024/04/01 07:47:15;;;;;;;5.97;3.20;;;9.80;99.90;;;;;;4994367;28;20041;-77
2024/04/01 07:49:41;;;;;;;8.00;3.10;;;9.80;99.90;;;;;;4993151;28;20022;-77
2024/04/01 07:52:09;;;;;;;6.10;2.70;;;9.90;99.90;;;;;;4993053;28;20050;-77
2024/04/01 07:54:37;;;;;;;5.93;2.85;;;9.90;99.90;;;;;;4993967;28;20026;-77
2024/04/01 07:57:10;;;;;;;6.53;2.90;;;9.90;99.90;;;;;;4994202;28;20485;-77
2024/04/01 07:59:38;;;;;;;4.35;2.70;;;9.90;99.90;;;;;;4993212;28;20120;-77
2024/04/01 08:02:04;;;;;;;3.53;2.33;;;9.90;99.90;;;;;;4992924;28;20026;-77
2024/04/01 08:04:30;;;;;;;4.22;2.88;;;9.90;99.90;;;;;;4994393;28;20390;-77
2024/04/01 08:06:56;;;;;;;5.57;2.63;;;9.90;99.90;;;;;;4992963;28;20044;-77
2024/04/01 08:09:22;;;;;;;4.43;2.50;;;9.90;99.90;;;;;;4992999;28;20549;-77
2024/04/01 08:11:51;;;;;;;5.30;2.92;;;10.00;99.90;;;;;;4993970;28;20030;-77
2024/04/01 08:14:18;;;;;;;;;;;9.90;99.90;;;;;;4993101;28;20113;-76
2024/04/01 08:16:44;;;;;;;8.68;3.40;;;9.90;99.90;;;;;;4994036;28;19909;-76
2024/04/01 08:19:10;;;;;;;4.03;2.90;;;9.90;99.90;;;;;;4993957;28;20026;-76
2024/04/01 08:21:37;;;;;;;4.38;2.95;;;10.00;99.90;;;;;;4992673;28;20011;-76
2024/04/01 08:24:03;;;;;;;5.47;2.90;;;9.90;99.90;;;;;;4992604;28;20117;-76
2024/04/01 08:26:29;;;;;;;6.53;2.95;;;10.00;99.90;;;;;;4994139;28;20030;-77
2024/04/01 08:28:54;;;;;;;6.28;2.47;;;10.00;99.90;;;;;;4993764;28;20038;-76
2024/04/01 08:31:20;;;;;;;7.03;2.85;;;10.00;99.90;;;;;;5009578;28;20048;-76
2024/04/01 08:33:46;;;;;;;4.05;2.38;;;10.00;99.90;;;;;;5001758;28;20054;-76
2024/04/01 08:36:12;;;;;;;4.70;2.35;;;9.90;99.90;;;;;;4993473;28;20026;-76
2024/04/01 08:38:38;;;;;;;3.75;2.47;;;10.00;99.90;;;;;;4991960;28;20029;-76
2024/04/01 08:41:09;;;;;;;5.45;2.28;;;10.00;99.90;;;;;;4999419;28;20022;-75
2024/04/01 08:44:02;;;;;;;4.07;2.30;;;10.00;99.90;;;;;;4993345;28;20489;-77
2024/04/01 08:46:31;;;;;;;4.05;2.50;;;10.10;99.90;;;;;;4987784;28;20117;-75
2024/04/01 08:49:01;;;;;;;3.97;2.17;;;10.20;99.90;;;;;;4983659;28;20031;-76
2024/04/01 08:51:32;;;;;;;5.50;2.25;;;10.20;99.90;;;;;;4991849;28;20021;-75
2024/04/01 08:54:01;;;;;;;2.90;2.17;;;10.20;99.90;;;;;;4993304;28;20489;-76
2024/04/01 08:56:29;;;;;;;5.90;2.70;;;10.20;99.90;;;;;;4993003;28;20077;-76
2024/04/01 08:58:59;;;;;;;3.83;2.50;;;10.30;99.90;;;;;;4992947;28;20030;-76
2024/04/01 09:01:25;;;;;;;5.35;2.70;;;10.30;99.90;;;;;;4993169;28;20050;-76
2024/04/01 09:03:52;;;;;;;4.75;2.13;;;10.30;99.90;;;;;;4982951;28;20030;-77
2024/04/01 09:06:20;;;;;;;2.55;1.50;;;10.30;99.90;;;;;;4991208;28;20034;-77
2024/04/01 09:08:47;;;;;;;3.67;1.98;;;10.40;99.90;;;;;;4991529;28;20068;-76
2024/04/01 09:11:14;;;;;;;5.57;2.00;;;10.40;99.90;;;;;;4991548;28;20118;-76
2024/04/01 09:13:40;;;;;;;3.42;1.88;;;10.50;99.90;;;;;;4993165;28;20026;-76
2024/04/01 09:16:10;;;;;;;4.70;2.67;;;10.60;99.90;;;;;;4993015;28;20026;-76
2024/04/01 09:18:36;;;;;;;5.80;2.33;;;10.60;99.90;;;;;;4993228;28;20500;-76
2024/04/01 09:21:03;;;;;;;3.83;1.75;;;10.70;99.90;;;;;;4993079;28;20022;-76
2024/04/01 09:23:32;;;;;;;3.13;1.52;;;10.70;99.90;;;;;;4991490;28;20169;-76
2024/04/01 09:25:58;;;;;;;3.85;2.10;;;10.70;99.90;;;;;;4994072;28;20397;-75
2024/04/01 09:28:25;;;;;;;3.15;1.85;;;10.70;99.90;;;;;;4993565;28;20504;-75
2024/04/01 09:30:50;;;;;;;3.35;1.80;;;10.60;99.90;;;;;;4991904;28;20033;-76
2024/04/01 09:33:16;;;;;;;2.42;1.23;;;10.70;99.90;;;;;;4991379;28;20034;-77
2024/04/01 09:35:41;;;;;;;2.75;1.58;;;10.80;99.90;;;;;;4991289;28;20030;-76
2024/04/01 09:38:08;;;;;;;2.53;1.58;;;10.90;99.90;;;;;;4993029;28;20027;-77
2024/04/01 09:40:34;;;;;;;2.92;1.98;;;10.80;99.90;;;;;;4992206;28;20033;-75
2024/04/01 09:43:01;;;;;;;2.60;1.20;;;11.00;99.90;;;;;;4991376;28;20021;-75
2024/04/01 09:45:30;;;;;;;2.45;1.10;;;11.00;99.90;;;;;;4993893;28;20098;-75
2024/04/01 09:47:56;;;;;;;0.80;0.50;;;11.00;99.90;;;;;;4992534;28;20030;-76
2024/04/01 09:50:25;;;;;;;3.65;0.85;;;11.10;99.90;;;;;;4993069;28;20045;-76
2024/04/01 09:52:50;;;;;;;4.32;1.40;;;11.00;99.90;;;;;;4992589;28;20045;-77
2024/04/01 09:55:20;;;;;;;2.25;1.02;;;11.00;99.90;;;;;;4991775;28;20494;-76
2024/04/01 09:57:46;;;;;;;3.72;1.15;;;10.90;99.90;;;;;;4992280;28;20053;-76
2024/04/01 10:01:01;;;;;;;4.38;1.38;;;10.80;99.90;;;;;;4992389;28;20030;-76
2024/04/01 10:03:56;;;;;;;2.92;1.75;;;10.80;99.90;;;;;;4939821;29;20027;-75
2024/04/01 10:06:47;;;;;;;6.28;2.33;;;10.80;99.90;;;;;;4994283;28;20133;-77
2024/04/01 10:09:13;;;;;;;6.15;1.27;;;10.80;99.90;;;;;;4994183;28;20041;-77
2024/04/01 10:12:04;;;;;;;6.35;1.60;;;10.80;99.90;;;;;;4996345;28;20034;-76
2024/04/01 10:15:07;;;;;;;4.82;2.20;;;10.80;99.90;;;;;;4976636;28;20045;-75
2024/04/01 10:18:10;;;;;;;6.85;2.63;;;10.80;99.90;;;;;;4991280;28;20034;-74
2024/04/01 10:21:06;;;;;;;5.22;2.25;;;10.80;99.90;;;;;;4994370;28;20022;-77
2024/04/01 10:24:03;;;;;;;4.35;2.47;;;10.80;99.90;;;;;;4990080;28;20033;-76
2024/04/01 10:26:37;;;;;;;4.00;2.00;;;10.80;99.90;;;;;;4996629;28;20022;-75
2024/04/01 10:29:47;;;;;;;5.28;2.35;;;10.90;99.90;;;;;;4994148;28;20528;-76
2024/04/01 10:32:31;;;;;;;6.32;2.28;;;10.80;99.90;;;;;;4975342;28;20101;-75
2024/04/01 10:35:39;;;;;;;6.80;1.92;;;10.90;99.90;;;;;;4996012;28;20474;-76
2024/04/01 10:38:24;;;;;;;;;;;10.90;99.90;;;;;;4995472;28;20030;-75
2024/04/01 10:41:25;;;;;;;5.15;1.98;;;11.00;99.90;;;;;;4995978;28;20414;-77
2024/04/01 10:44:27;;;;;;;2.78;1.15;;;11.00;99.90;;;;;;4994699;28;20030;-76
2024/04/01 10:47:28;;;;;;;3.60;1.30;;;11.00;99.90;;;;;;4997545;28;20038;-77
2024/04/01 10:50:25;;;;;;;3.08;1.40;;;11.00;99.90;;;;;;4992333;28;20117;-74
2024/04/01 10:53:23;;;;;;;7.05;1.20;;;10.80;99.90;;;;;;4986749;28;20030;-76
2024/04/01 10:56:07;;;;;;;;;;;10.90;99.90;;;;;;4995398;28;20097;-76
2024/04/01 10:59:16;;;;;;;4.80;1.45;;;10.90;99.90;;;;;;4992656;28;20012;-75
2024/04/01 11:02:00;;;;;;;9.65;2.13;;;10.90;99.90;;;;;;4991488;28;20113;-75
2024/04/01 11:04:35;;;;;;;2.42;0.80;;;10.90;99.90;;;;;;4994679;28;20490;-75
2024/04/01 11:07:43;;;;;;;4.68;1.25;;;10.90;99.90;;;;;;4992010;28;20038;-75
2024/04/01 11:10:30;;;;;;;6.25;0.90;;;10.80;99.90;;;;;;4992543;28;20504;-77
2024/04/01 11:13:02;;;;;;;3.88;1.20;;;10.90;99.90;;;;;;4991180;28;20172;-75
2024/04/01 11:15:28;;;;;;;3.80;0.65;;;11.00;99.90;;;;;;4994361;28;20089;-76
2024/04/01 11:18:20;;;;;;;9.35;2.33;;;11.00;99.90;;;;;;4994611;28;20122;-76
2024/04/01 11:21:09;;;;;;;4.35;1.15;;;10.90;99.90;;;;;;4992672;28;20027;-77
2024/04/01 11:24:10;;;;;;;5.22;1.23;;;11.00;99.90;;;;;;4987949;28;20037;-75
2024/04/01 11:26:48;;;;;;;4.38;1.02;;;11.00;99.90;;;;;;4990128;28;20031;-75
2024/04/01 11:29:45;;;;;;;4.05;0.70;;;11.00;99.90;;;;;;4993832;28;20061;-76
2024/04/01 11:32:15;;;;;;;1.55;0.30;;;11.10;99.90;;;;;;4991509;28;20482;-75
2024/04/01 11:35:06;;;;;;;4.28;0.60;;;11.10;99.90;;;;;;4993035;28;20053;-76
2024/04/01 11:37:50;;;;;;;1.88;0.38;;;11.20;99.90;;;;;;4990049;28;20030;-75
2024/04/01 11:40:20;;;;;;;5.18;0.73;;;11.20;99.90;;;;;;4992844;28;20416;-76
2024/04/01 11:42:52;;;;;;;5.05;0.47;;;11.20;99.90;;;;;;4992830;28;20046;-76
2024/04/01 11:45:20;;;;;;;7.15;0.43;;;11.20;99.90;;;;;;4993917;28;20516;-76
2024/04/01 11:47:46;;;;;;;5.60;0.70;;;11.30;99.90;;;;;;4992766;28;20030;-76
2024/04/01 11:50:19;;;;;;;2.47;0.65;;;11.30;99.90;;;;;;4994150;28;20033;-76
2024/04/01 11:52:58;;;;;;;3.10;0.50;;;11.30;99.90;;;;;;4993968;28;20034;-76
2024/04/01 11:55:26;;;;;;;2.22;1.08;;;11.20;99.90;;;;;;4989788;28;20030;-75
2024/04/01 11:57:52;;;;;;;5.35;0.85;;;11.30;99.90;;;;;;4992475;28;20401;-76
2024/04/01 12:00:18;;;;;;;6.80;1.13;;;11.40;99.90;;;;;;4993243;28;20027;-77
2024/04/01 12:02:54;;;;;;;3.53;0.60;;;11.60;99.90;;;;;;4995401;28;20061;-76
2024/04/01 12:05:20;;;;;;;5.32;1.08;;;11.60;99.90;;;;;;4993543;28;20033;-77
2024/04/01 12:07:47;;;;;;;6.72;0.65;;;11.70;99.90;;;;;;4996269;28;20069;-76
2024/04/01 12:10:14;;;;;;;0.77;0.55;;;11.80;99.90;;;;;;4992745;28;20401;-77
2024/04/01 12:12:40;;;;;;;5.55;0.88;;;11.90;99.90;;;;;;4994528;28;20477;-76
2024/04/01 12:15:07;;;;;;;4.43;0.60;;;11.90;99.90;;;;;;4992291;28;20025;-77
2024/04/01 12:17:35;;;;;;;2.88;0.50;;;11.90;99.90;;;;;;4993423;28;20100;-74
2024/04/01 12:20:05;;;;;;;4.57;1.50;;;11.80;99.90;;;;;;4992711;28;20030;-75
2024/04/01 12:22:31;;;;;;;1.58;0.57;;;11.80;99.90;;;;;;4990667;28;20066;-76
2024/04/01 12:24:57;;;;;;;2.20;0.47;;;11.80;99.90;;;;;;4993829;28;20037;-75
2024/04/01 12:27:23;;;;;;;4.65;0.75;;;11.90;99.90;;;;;;4992376;28;20030;-76
2024/04/01 12:29:52;;;;;;;1.63;0.82;;;12.20;99.90;;;;;;4993910;28;20034;-76
2024/04/01 12:32:20;;;;;;;7.93;0.65;;;12.30;99.90;;;;;;4993878;28;20026;-76
2024/04/01 12:34:46;;;;;;;3.65;0.63;;;12.30;99.90;;;;;;4992774;28;20063;-77
2024/04/01 12:37:13;;;;;;;4.13;1.23;;;12.50;99.90;;;;;;4992979;28;20019;-76
2024/04/01 12:39:47;;;;;;;6.20;0.38;;;12.50;99.90;;;;;;4991925;28;20021;-77
2024/04/01 12:42:16;;;;;;;2.22;0.40;;;12.50;99.90;;;;;;4992589;28;20026;-76
2024/04/01 12:44:44;;;;;;;3.00;0.20;;;12.50;99.90;;;;;;4993368;28;20022;-77
2024/04/01 12:47:13;;;;;;;2.08;0.28;;;12.50;99.90;;;;;;4993722;28;20089;-77
2024/04/01 12:49:40;;;;;;;3.00;0.22;;;12.70;99.90;;;;;;4991672;28;20412;-76
2024/04/01 12:52:13;;;;;;;2.28;0.15;;;12.70;99.90;;;;;;4995481;28;20370;-76
2024/04/01 12:55:02;;;;;;;2.67;0.82;;;12.70;99.90;;;;;;4992913;28;20027;-77
2024/04/01 12:57:54;;;;;;;0.73;0.00;;;12.80;99.90;;;;;;4988894;28;20076;-76
2024/04/01 13:00:29;;;;;;;3.75;0.20;;;13.00;99.90;;;;;;4990396;28;20035;-77
2024/04/01 13:03:32;;;;;;;2.05;0.10;;;13.10;99.90;;;;;;4989914;28;20393;-77
2024/04/01 13:06:50;;;;;;;2.10;0.10;;;13.40;99.90;;;;;;4987594;28;20030;-77
2024/04/01 13:09:54;;;;;;;1.77;0.00;;;13.30;99.90;;;;;;4989672;28;20041;-77
2024/04/01 13:12:32;;;;;;;5.20;0.10;;;13.30;99.90;;;;;;4987665;28;20042;-76